Map

Track Data

SID SEASON NUMBER BASIN SUBBASIN NAME ISO_TIME NATURE LAT LON WMO_WIND WMO_PRES WMO_AGENCY TRACK_TYPE DIST2LAND LANDFALL IFLAG USA_AGENCY USA_ATCF_ID USA_LAT USA_LON USA_RECORD USA_STATUS USA_WIND USA_PRES USA_SSHS USA_R34_NE USA_R34_SE USA_R34_SW USA_R34_NW USA_R50_NE USA_R50_SE USA_R50_SW USA_R50_NW USA_R64_NE USA_R64_SE USA_R64_SW USA_R64_NW USA_POCI USA_ROCI USA_RMW USA_EYE TOKYO_LAT TOKYO_LON TOKYO_GRADE TOKYO_WIND TOKYO_PRES TOKYO_R50_DIR TOKYO_R50_LONG TOKYO_R50_SHORT TOKYO_R30_DIR TOKYO_R30_LONG TOKYO_R30_SHORT TOKYO_LAND CMA_LAT CMA_LON CMA_CAT CMA_WIND CMA_PRES HKO_LAT HKO_LON HKO_CAT HKO_WIND HKO_PRES NEWDELHI_LAT NEWDELHI_LON NEWDELHI_GRADE NEWDELHI_WIND NEWDELHI_PRES NEWDELHI_CI NEWDELHI_DP NEWDELHI_POCI REUNION_LAT REUNION_LON REUNION_TYPE REUNION_WIND REUNION_PRES REUNION_TNUM REUNION_CI REUNION_RMW REUNION_R34_NE REUNION_R34_SE REUNION_R34_SW REUNION_R34_NW REUNION_R50_NE REUNION_R50_SE REUNION_R50_SW REUNION_R50_NW REUNION_R64_NE REUNION_R64_SE REUNION_R64_SW REUNION_R64_NW BOM_LAT BOM_LON BOM_TYPE BOM_WIND BOM_PRES BOM_TNUM BOM_CI BOM_RMW BOM_R34_NE BOM_R34_SE BOM_R34_SW BOM_R34_NW BOM_R50_NE BOM_R50_SE BOM_R50_SW BOM_R50_NW BOM_R64_NE BOM_R64_SE BOM_R64_SW BOM_R64_NW BOM_ROCI BOM_POCI BOM_EYE BOM_POS_METHOD BOM_PRES_METHOD NADI_LAT NADI_LON NADI_CAT NADI_WIND NADI_PRES WELLINGTON_LAT WELLINGTON_LON WELLINGTON_WIND WELLINGTON_PRES DS824_LAT DS824_LON DS824_STAGE DS824_WIND DS824_PRES TD9636_LAT TD9636_LON TD9636_STAGE TD9636_WIND TD9636_PRES TD9635_LAT TD9635_LON TD9635_WIND TD9635_PRES TD9635_ROCI NEUMANN_LAT NEUMANN_LON NEUMANN_CLASS NEUMANN_WIND NEUMANN_PRES MLC_LAT MLC_LON MLC_CLASS MLC_WIND MLC_PRES USA_GUST BOM_GUST BOM_GUST_PER REUNION_GUST REUNION_GUST_PER USA_SEAHGT USA_SEARAD_NE USA_SEARAD_SE USA_SEARAD_SW USA_SEARAD_NW STORM_SPEED STORM_DIR
1901345S13052 1902 52 SI MM NOT_NAMED 1901-12-11 06:00:00 NR -12.8500 52.0500 reunion main 237 213 _____O____O___ -1 -12.7000 52.5000 99 9.90000 -13.0000 51.6000 7 3 251
1901345S13052 1902 52 SI MM NOT_NAMED 1901-12-11 09:00:00 NR -12.8936 51.9229 main 213 202 _____P____P___ -1 -12.7435 52.3833 99 -13.0438 51.4625 7 3 250
1901345S13052 1902 52 SI MM NOT_NAMED 1901-12-11 12:00:00 NR -12.9388 51.7928 main 202 189 _____P____P___ -1 -12.7876 52.2657 99 -13.0900 51.3200 7 3 250
1901345S13052 1902 52 SI MM NOT_NAMED 1901-12-11 15:00:00 NR -12.9871 51.6570 main 189 168 _____P____P___ -1 -12.8329 52.1465 99 -13.1413 51.1675 7 3 250
1901345S13052 1902 52 SI MM NOT_NAMED 1901-12-11 18:00:00 NR -13.0401 51.5125 main 168 155 _____P____O___ -1 -12.8801 52.0251 99 -13.2000 51.0000 7 3 249
1901345S13052 1902 52 SI MM NOT_NAMED 1901-12-11 21:00:00 NR -13.0988 51.3574 main 155 131 _____P____P___ -1 -12.9298 51.9004 99 -13.2678 50.8144 7 3 249
1901345S13052 1902 52 SI MM NOT_NAMED 1901-12-12 00:00:00 NR -13.1625 51.1935 main 131 110 _____P____P___ -1 -12.9826 51.7719 99 -13.3425 50.6150 7 4 248
1901345S13052 1902 52 SI MM NOT_NAMED 1901-12-12 03:00:00 NR -13.2300 51.0234 main 110 98 _____P____P___ -1 -13.0391 51.6387 99 -13.4209 50.4081 7 4 248
1901345S13052 1902 52 SI MM NOT_NAMED 1901-12-12 06:00:00 NR -13.3000 50.8500 reunion main 98 75 _____O____O___ -1 -13.1000 51.5000 99 9.90000 -13.5000 50.2000 7 4 247
1901345S13052 1902 52 SI MM NOT_NAMED 1901-12-12 09:00:00 NR -13.3724 50.6756 main 75 54 _____P____P___ -1 -13.1657 51.3553 99 -13.5790 49.9959 7 4 247
1901345S13052 1902 52 SI MM NOT_NAMED 1901-12-12 12:00:00 NR -13.4465 50.4986 main 54 32 _____P____P___ -1 -13.2356 51.2047 99 -13.6575 49.7925 7 4 247
1901345S13052 1902 52 SI MM NOT_NAMED 1901-12-12 15:00:00 NR -13.5205 50.3207 main 32 21 _____P____P___ -1 -13.3089 51.0486 99 -13.7322 49.5928 7 4 247
1901345S13052 1902 52 SI MM NOT_NAMED 1901-12-12 18:00:00 NR -13.5924 50.1437 main 10 0 _____P____O___ -1 -13.3849 50.8874 99 -13.8000 49.4000 7 4 248
1901345S13052 1902 52 SI MM NOT_NAMED 1901-12-12 21:00:00 NR -13.6538 49.9777 main 0 0 _____P____P___ -1 -13.4628 50.7216 99 -13.8448 49.2339 7 3 249
1901345S13052 1902 52 SI MM NOT_NAMED 1901-12-13 00:00:00 NR -13.7133 49.8119 main 0 0 _____P____P___ -1 -13.5418 50.5515 99 -13.8848 49.0722 7 4 250
1901345S13052 1902 52 SI MM NOT_NAMED 1901-12-13 03:00:00 NR -13.7767 49.6385 main 0 0 _____P____P___ -1 -13.6211 50.3775 99 -13.9323 48.8995 7 4 249
1901345S13052 1902 52 SI MM NOT_NAMED 1901-12-13 06:00:00 NR -13.8500 49.4500 reunion main 0 0 _____O____O___ -1 -13.7000 50.2000 99 9.90000 -14.0000 48.7000 7 4 247
1901345S13052 1902 52 SI MM NOT_NAMED 1901-12-13 09:00:00 NR -13.9413 49.2465 main 0 0 _____P____P___ -1 -13.7710 50.0350 99 -14.1116 48.4579 7 5 245
1901345S13052 1902 52 SI MM NOT_NAMED 1901-12-13 12:00:00 NR -14.0420 49.0275 main 0 0 _____P____P___ -1 -13.8415 49.8674 99 -14.2425 48.1877 7 5 245
1901345S13052 1902 52 SI MM NOT_NAMED 1901-12-13 15:00:00 NR -14.1447 48.7970 main 0 0 _____P____P___ -1 -13.9123 49.6954 99 -14.3772 47.8986 7 5 246
1901345S13052 1902 52 SI MM NOT_NAMED 1901-12-13 18:00:00 NR -14.2422 48.5584 main 0 0 _____P____O___ -1 -13.9843 49.5169 99 -14.5000 47.6000 7 5 249
1901345S13052 1902 52 SI MM NOT_NAMED 1901-12-13 21:00:00 NR -14.3198 48.3165 main 0 0 _____P____P___ -1 -14.0583 49.3300 99 -14.5812 47.3029 7 5 252
1901345S13052 1902 52 SI MM NOT_NAMED 1901-12-14 00:00:00 NR -14.3925 48.0663 main 0 0 _____P____P___ -1 -14.1351 49.1329 99 -14.6500 46.9997 7 5 253
1901345S13052 1902 52 SI MM NOT_NAMED 1901-12-14 03:00:00 NR -14.4670 47.8101 main 0 0 _____P____P___ -1 -14.2154 48.9236 99 -14.7187 46.6967 7 5 253
1901345S13052 1902 52 SI MM NOT_NAMED 1901-12-14 06:00:00 NR -14.5500 47.5500 reunion main 15 21 _____O____O___ -1 -14.3000 48.7000 99 9.90000 -14.8000 46.4000 7 5 250
1901345S13052 1902 52 SI MM NOT_NAMED 1901-12-14 09:00:00 NR -14.6475 47.3005 main 24 15 _____P____P___ -1 -14.3887 48.4670 99 -14.9063 46.1339 7 5 247
1901345S13052 1902 52 SI MM NOT_NAMED 1901-12-14 12:00:00 NR -14.7542 47.0463 main 34 34 _____P____P___ -1 -14.4813 48.2204 99 -15.0271 45.8723 7 6 246
1901345S13052 1902 52 SI MM NOT_NAMED 1901-12-14 15:00:00 NR -14.8685 46.7802 main 39 39 _____P____P___ -1 -14.5776 47.9609 99 -15.1594 45.5995 7 6 246
1901345S13052 1902 52 SI MM NOT_NAMED 1901-12-14 18:00:00 NR -14.9885 46.4948 main 46 46 _____P____O___ -1 -14.6771 47.6895 99 -15.3000 45.3000 7 6 247
1901345S13052 1902 52 SI MM NOT_NAMED 1901-12-14 21:00:00 NR -15.1128 46.1847 main 54 54 _____P____P___ -1 -14.7794 47.4069 99 -15.4461 44.9625 7 5 246
1901345S13052 1902 52 SI MM NOT_NAMED 1901-12-15 00:00:00 NR -15.1892 46.0336 main 62 62 _____P____P___ -1 -14.8843 47.1139 99 -15.5958 44.5931 7 3 241
1901345S13052 1902 52 SI MM NOT_NAMED 1901-12-15 03:00:00 NR -15.2434 45.9416 main 68 54 _____P____P___ -1 -14.9912 46.8114 99 -15.7476 44.2021 7 1 223
1901345S13052 1902 52 SI MM NOT_NAMED 1901-12-15 06:00:00 NR -15.2600 45.9600 reunion main 54 48 _____O____O___ -1 -15.1000 46.5000 99 9.90000 -15.9000 43.8000 7 2 82
1901345S13052 1902 52 SI MM NOT_NAMED 1901-12-15 09:00:00 NR -15.2141 46.1574 main 48 48 _____P________ -1 -15.2141 46.1574 99 7 2 245
1901345S13052 1902 52 SI MM NOT_NAMED 1901-12-15 12:00:00 NR -15.3310 45.8006 main 59 55 _____P________ -1 -15.3310 45.8006 99 7 7 251
1901345S13052 1902 52 SI MM NOT_NAMED 1901-12-15 15:00:00 NR -15.4490 45.4376 main 59 44 _____P________ -1 -15.4490 45.4376 99 7 7 251
1901345S13052 1902 52 SI MM NOT_NAMED 1901-12-15 18:00:00 NR -15.5665 45.0759 main 44 44 _____P________ -1 -15.5665 45.0759 99 7 251
1901345S13052 1902 52 SI MM NOT_NAMED 1901-12-15 21:00:00 NR -15.6819 44.7235 main 54 54 _____P________ -1 -15.6819 44.7235 99 7 251
1901345S13052 1902 52 SI MM NOT_NAMED 1901-12-16 00:00:00 NR -15.7936 44.3881 main 55 49 _____P________ -1 -15.7936 44.3881 99 7 251
1901345S13052 1902 52 SI MM NOT_NAMED 1901-12-16 03:00:00 NR -15.9001 44.0777 main 55 55 _____P________ -1 -15.9001 44.0777 99 6 250
1901345S13052 1902 52 SI MM NOT_NAMED 1901-12-16 06:00:00 NR -16.0000 43.8000 reunion main 72 72 _____O________ -1 -16.0000 43.8000 99 9.90000 5 249
1901345S13052 1902 52 SI MM NOT_NAMED 1901-12-16 09:00:00 NR -16.0922 43.5609 main 88 88 _____P________ -1 -16.0922 43.5609 99 5 247
1901345S13052 1902 52 SI MM NOT_NAMED 1901-12-16 12:00:00 NR -16.1775 43.3574 main 107 107 _____P________ -1 -16.1775 43.3574 99 4 245
1901345S13052 1902 52 SI MM NOT_NAMED 1901-12-16 15:00:00 NR -16.2569 43.1844 main 128 128 _____P________ -1 -16.2569 43.1844 99 3 243
1901345S13052 1902 52 SI MM NOT_NAMED 1901-12-16 18:00:00 NR -16.3313 43.0370 main 149 147 _____P________ -1 -16.3313 43.0370 99 3 241
1901345S13052 1902 52 SI MM NOT_NAMED 1901-12-16 21:00:00 NR -16.4019 42.9099 main 156 156 _____P________ -1 -16.4019 42.9099 99 3 239
1901345S13052 1902 52 SI MM NOT_NAMED 1901-12-17 00:00:00 NR -16.4695 42.7981 main 159 159 _____P________ -1 -16.4695 42.7981 99 2 237
1901345S13052 1902 52 SI MM NOT_NAMED 1901-12-17 03:00:00 NR -16.5353 42.6965 main 168 162 _____P________ -1 -16.5353 42.6965 99 2 236
1901345S13052 1902 52 SI MM NOT_NAMED 1901-12-17 06:00:00 NR -16.6000 42.6000 reunion main 171 _____O________ -1 -16.6000 42.6000 99 9.90000 2 235

About IBTrACS Database

This database is a web-friendly format of International Best Track Archive for Climate Stewardship (IBTrACS), a global best track data archive curated by NOAA dating back to 1842.

Updated: 2021-12-03